createdAt,value
2022-07-31T00:00:41.422Z,6.20
2022-07-31T00:03:08.651Z,5.63
2022-07-31T00:05:41.408Z,4.93
2022-07-31T00:08:09.758Z,5.03
2022-07-31T00:10:36.679Z,4.50
2022-07-31T00:13:03.531Z,4.20
2022-07-31T00:15:30.365Z,4.40
2022-07-31T00:17:57.146Z,4.43
2022-07-31T00:20:23.992Z,4.90
2022-07-31T00:22:50.807Z,4.90
2022-07-31T00:25:18.092Z,4.70
2022-07-31T00:27:45.188Z,5.10
2022-07-31T00:30:12.385Z,4.75
2022-07-31T00:32:39.198Z,4.80
2022-07-31T00:38:02.134Z,5.80
2022-07-31T00:40:47.091Z,5.00
2022-07-31T00:43:15.200Z,5.80
2022-07-31T00:45:42.198Z,5.72
2022-07-31T00:50:58.135Z,5.80
2022-07-31T00:53:25.096Z,5.50
2022-07-31T00:55:52.386Z,5.70
2022-07-31T00:58:20.408Z,5.40
2022-07-31T01:00:48.428Z,5.57
2022-07-31T01:06:02.207Z,4.70
2022-07-31T01:11:24.679Z,5.00
2022-07-31T01:13:56.780Z,5.70
2022-07-31T01:16:27.096Z,6.10
2022-07-31T01:18:56.056Z,6.43
2022-07-31T01:21:49.680Z,5.68
2022-07-31T01:24:35.387Z,6.53
2022-07-31T01:27:17.944Z,6.50
2022-07-31T01:29:47.143Z,5.88
2022-07-31T01:32:27.625Z,5.80
2022-07-31T01:35:12.838Z,5.40
2022-07-31T01:37:45.463Z,5.30
2022-07-31T01:40:16.128Z,5.10
2022-07-31T01:42:51.238Z,5.10
2022-07-31T01:45:20.895Z,4.80
2022-07-31T01:47:49.028Z,4.60
2022-07-31T01:50:42.158Z,5.65
2022-07-31T01:53:03.921Z,6.05
2022-07-31T01:55:31.982Z,6.43
2022-07-31T01:58:21.569Z,5.72
2022-07-31T02:00:52.890Z,5.30
2022-07-31T02:01:47.009Z,0
2022-07-31T02:03:44.224Z,5.10
2022-07-31T02:08:57.621Z,6.30
2022-07-31T02:14:12.437Z,5.30
2022-07-31T02:16:39.370Z,5.30
2022-07-31T02:19:08.916Z,5.80
2022-07-31T02:21:35.729Z,5.55
2022-07-31T02:24:02.563Z,5.47
2022-07-31T02:26:32.147Z,5.70
2022-07-31T02:29:00.122Z,4.97
2022-07-31T02:31:29.709Z,5.00
2022-07-31T02:33:56.600Z,5.00
2022-07-31T02:36:24.278Z,4.97
2022-07-31T02:38:52.597Z,5.70
2022-07-31T02:41:20.444Z,4.80
2022-07-31T02:46:15.403Z,4.40
2022-07-31T02:48:42.876Z,5.30
2022-07-31T02:53:56.533Z,4.50
2022-07-31T02:59:11.550Z,4.80
2022-07-31T03:04:25.098Z,4.53
2022-07-31T03:09:38.858Z,4.60
2022-07-31T03:12:06.287Z,4.88
2022-07-31T03:14:35.526Z,4.40
2022-07-31T03:17:04.537Z,4.53
2022-07-31T03:22:18.592Z,4.17
2022-07-31T03:27:32.992Z,4.90
2022-07-31T03:29:59.895Z,5.00
2022-07-31T03:32:26.663Z,4.50
2022-07-31T03:34:53.445Z,5.85
2022-07-31T03:37:20.273Z,8.13
2022-07-31T03:38:51.867Z,0
2022-07-31T03:39:47.055Z,5.85
2022-07-31T03:42:19.182Z,5.40
2022-07-31T03:44:47.555Z,5.28
2022-07-31T03:47:16.617Z,4.47
2022-07-31T03:49:44.242Z,5.00
2022-07-31T03:52:12.537Z,6.70
2022-07-31T03:57:29.168Z,4.37
2022-07-31T04:00:03.030Z,7.30
2022-07-31T04:05:16.985Z,5.10
2022-07-31T04:10:30.474Z,6.10
2022-07-31T04:15:44.012Z,6.05
2022-07-31T04:20:57.555Z,8.20
2022-07-31T04:23:24.373Z,8.83
2022-07-31T04:25:59.668Z,9.32
2022-07-31T04:28:26.478Z,8.18
2022-07-31T04:30:53.349Z,12.00
2022-07-31T04:33:20.248Z,13.10
2022-07-31T04:35:47.345Z,10.50
2022-07-31T04:38:14.279Z,10.07
2022-07-31T04:40:41.088Z,11.38
2022-07-31T04:43:07.877Z,11.43
2022-07-31T04:45:34.868Z,12.65
2022-07-31T04:48:01.699Z,12.00
2022-07-31T04:50:28.539Z,11.70
2022-07-31T04:52:55.314Z,12.83
2022-07-31T04:55:22.166Z,11.68
2022-07-31T04:57:48.919Z,11.47
2022-07-31T05:00:16.032Z,10.60
2022-07-31T05:02:42.838Z,12.70
2022-07-31T05:05:09.765Z,12.32
2022-07-31T05:07:36.552Z,12.50
2022-07-31T05:10:04.119Z,15.93
2022-07-31T05:12:30.967Z,14.73
2022-07-31T05:17:44.832Z,13.07
2022-07-31T05:22:58.677Z,11.27
2022-07-31T05:25:25.453Z,12.47
2022-07-31T05:30:38.958Z,11.15
2022-07-31T05:33:05.739Z,13.02
2022-07-31T05:35:32.499Z,12.43
2022-07-31T05:37:59.264Z,11.80
2022-07-31T05:40:26.069Z,13.50
2022-07-31T05:42:52.850Z,10.47
2022-07-31T05:45:19.713Z,9.50
2022-07-31T05:47:46.527Z,10.50
2022-07-31T05:50:13.379Z,14.40
2022-07-31T05:52:40.252Z,15.03
2022-07-31T05:55:07.460Z,18.58
2022-07-31T05:57:34.843Z,17.52
2022-07-31T06:00:03.769Z,16.80
2022-07-31T06:02:31.087Z,17.63
2022-07-31T06:07:24.792Z,17.98
2022-07-31T06:09:52.042Z,17.40
2022-07-31T06:12:19.711Z,17.40
2022-07-31T06:14:46.707Z,17.17
2022-07-31T06:17:13.523Z,17.77
2022-07-31T06:19:40.331Z,16.70
2022-07-31T06:22:07.466Z,14.73
2022-07-31T06:24:34.643Z,14.57
2022-07-31T06:27:02.681Z,13.30
2022-07-31T06:29:41.971Z,17.75
2022-07-31T06:32:09.497Z,15.68
2022-07-31T06:33:39.632Z,0
2022-07-31T06:34:36.276Z,15.73
2022-07-31T06:37:03.124Z,13.67
2022-07-31T06:39:54.287Z,13.38
2022-07-31T06:42:23.467Z,12.82
2022-07-31T06:44:50.660Z,11.95
2022-07-31T06:45:56.418Z,0
2022-07-31T06:47:19.095Z,12.70
2022-07-31T06:49:46.000Z,11.48
2022-07-31T06:52:12.975Z,13.35
2022-07-31T06:54:39.758Z,14.32
2022-07-31T06:57:06.542Z,14.13
2022-07-31T06:59:40.077Z,14.70
2022-07-31T07:05:04.729Z,12.70
2022-07-31T07:07:35.489Z,12.90
2022-07-31T07:10:02.267Z,12.90
2022-07-31T07:12:29.036Z,12.63
2022-07-31T07:17:42.851Z,11.95
2022-07-31T07:22:56.910Z,10.68
2022-07-31T07:28:14.964Z,10.85
2022-07-31T07:30:56.032Z,10.25
2022-07-31T07:33:40.713Z,10.57
2022-07-31T07:38:56.759Z,9.80
2022-07-31T07:43:52.824Z,11.85
2022-07-31T07:46:23.869Z,19.92
2022-07-31T07:48:50.996Z,10.05
2022-07-31T07:54:05.370Z,10.02
2022-07-31T07:56:32.173Z,10.00
2022-07-31T07:58:58.948Z,9.02
2022-07-31T08:01:25.892Z,8.23
2022-07-31T08:03:52.714Z,7.30
2022-07-31T08:06:21.139Z,6.27
2022-07-31T08:08:48.173Z,6.70
2022-07-31T08:11:17.140Z,5.45
2022-07-31T08:13:50.170Z,4.80
2022-07-31T08:16:21.699Z,4.95
2022-07-31T08:18:49.838Z,5.50
2022-07-31T08:21:17.261Z,5.05
2022-07-31T08:23:44.077Z,4.78
2022-07-31T08:26:11.512Z,5.30
2022-07-31T08:28:39.848Z,4.72
2022-07-31T08:31:08.203Z,4.90
2022-07-31T08:33:34.953Z,5.43
2022-07-31T08:36:01.735Z,5.65
2022-07-31T08:36:56.194Z,0
2022-07-31T08:38:28.996Z,4.70
2022-07-31T08:40:55.904Z,4.30
2022-07-31T08:44:02.511Z,4.33
2022-07-31T08:46:10.295Z,4.40
2022-07-31T08:48:40.381Z,4.60
2022-07-31T08:51:10.687Z,4.43
2022-07-31T08:56:25.753Z,3.70
2022-07-31T08:58:52.564Z,4.30
2022-07-31T09:04:06.190Z,4.30
2022-07-31T09:06:33.035Z,4.97
2022-07-31T09:11:51.591Z,4.63
2022-07-31T09:14:29.393Z,4.18
2022-07-31T09:16:57.323Z,3.80
2022-07-31T09:19:53.894Z,3.83
2022-07-31T09:22:26.357Z,4.20
2022-07-31T09:24:53.500Z,3.80
2022-07-31T09:30:15.383Z,3.53
2022-07-31T09:35:29.005Z,3.10
2022-07-31T09:37:55.841Z,3.10
2022-07-31T09:40:22.720Z,3.60
2022-07-31T09:42:22.499Z,0
2022-07-31T09:42:55.487Z,2.93
2022-07-31T09:45:24.155Z,3.10
2022-07-31T09:48:07.679Z,2.50
2022-07-31T09:50:34.950Z,2.90
2022-07-31T09:55:56.257Z,2.00
2022-07-31T09:58:24.132Z,2.10
2022-07-31T10:00:53.250Z,2.00
2022-07-31T10:03:20.499Z,1.70
2022-07-31T10:05:47.836Z,1.60
2022-07-31T10:08:16.783Z,1.75
2022-07-31T10:10:44.234Z,1.65
2022-07-31T10:13:14.047Z,1.60
2022-07-31T10:15:42.039Z,2.25
2022-07-31T10:20:56.900Z,1.55
2022-07-31T10:26:13.935Z,1.80
2022-07-31T10:27:14.496Z,0
2022-07-31T10:28:41.174Z,1.60
2022-07-31T10:31:08.115Z,2.00
2022-07-31T10:33:44.432Z,1.70
2022-07-31T10:36:28.577Z,1.70
2022-07-31T10:39:01.648Z,1.50
2022-07-31T10:41:52.427Z,1.90
2022-07-31T10:47:14.223Z,1.70
2022-07-31T10:49:48.990Z,1.90
2022-07-31T10:52:30.831Z,1.70
2022-07-31T10:54:58.593Z,2.05
2022-07-31T10:57:27.767Z,1.90
2022-07-31T10:59:54.578Z,2.00
2022-07-31T11:05:19.840Z,1.70
2022-07-31T11:07:47.034Z,1.50
2022-07-31T11:13:09.836Z,1.83
2022-07-31T11:15:36.683Z,1.70
2022-07-31T11:18:26.486Z,1.85
2022-07-31T11:21:17.787Z,1.50
2022-07-31T11:24:02.088Z,1.30
2022-07-31T11:26:32.963Z,1.70
2022-07-31T11:29:58.525Z,1.50
2022-07-31T11:31:55.228Z,1.50
2022-07-31T11:34:21.999Z,1.30
2022-07-31T11:36:51.530Z,1.23
2022-07-31T11:39:36.771Z,1.35
2022-07-31T11:42:04.984Z,1.20
2022-07-31T11:44:34.840Z,1.40
2022-07-31T11:49:49.473Z,1.30
2022-07-31T11:52:31.123Z,1.70
2022-07-31T11:55:09.344Z,1.70
2022-07-31T11:57:52.312Z,1.80
2022-07-31T12:00:26.077Z,1.50
2022-07-31T12:02:57.084Z,1.90
2022-07-31T12:05:38.812Z,1.90
2022-07-31T12:08:07.259Z,1.60
2022-07-31T12:10:34.566Z,1.60
2022-07-31T12:13:02.466Z,2.10
2022-07-31T12:18:16.049Z,2.00
2022-07-31T12:20:52.757Z,1.70
2022-07-31T12:23:40.440Z,1.90
2022-07-31T12:26:06.682Z,1.80
2022-07-31T12:28:33.472Z,1.90
2022-07-31T12:31:00.537Z,1.90
2022-07-31T12:33:27.584Z,1.90
2022-07-31T12:35:57.054Z,2.10
2022-07-31T12:38:47.498Z,2.60
2022-07-31T12:41:14.705Z,3.40
2022-07-31T12:43:50.839Z,2.33
2022-07-31T12:46:34.103Z,1.90
2022-07-31T12:49:00.942Z,2.00
2022-07-31T12:51:45.942Z,2.38
2022-07-31T12:54:15.854Z,2.05
2022-07-31T12:56:44.041Z,2.20
2022-07-31T12:59:10.977Z,2.10
2022-07-31T13:01:37.863Z,2.63
2022-07-31T13:04:05.028Z,2.60
2022-07-31T13:06:35.257Z,2.30
2022-07-31T13:09:02.052Z,2.20
2022-07-31T13:10:34.635Z,0
2022-07-31T13:11:28.838Z,2.78
2022-07-31T13:13:55.666Z,2.60
2022-07-31T13:19:09.206Z,3.33
2022-07-31T13:21:38.716Z,2.70
2022-07-31T13:24:17.376Z,3.50
2022-07-31T13:26:44.225Z,3.75
2022-07-31T13:29:11.665Z,2.80
2022-07-31T13:31:38.444Z,2.80
2022-07-31T13:34:05.247Z,3.00
2022-07-31T13:36:35.994Z,3.20
2022-07-31T13:39:05.880Z,2.53
2022-07-31T13:41:32.689Z,3.05
2022-07-31T13:44:00.883Z,3.20
2022-07-31T13:46:28.261Z,3.30
2022-07-31T13:48:56.906Z,3.00
2022-07-31T13:51:23.988Z,2.65
2022-07-31T13:53:55.835Z,2.60
2022-07-31T13:56:39.666Z,2.63
2022-07-31T13:59:10.292Z,3.50
2022-07-31T14:02:03.446Z,2.80
2022-07-31T14:04:25.391Z,2.90
2022-07-31T14:08:50.703Z,0
2022-07-31T14:09:38.871Z,2.80
2022-07-31T14:12:13.849Z,2.50
2022-07-31T14:14:42.309Z,3.60
2022-07-31T14:17:09.054Z,2.53
2022-07-31T14:19:42.045Z,2.60
2022-07-31T14:22:11.836Z,2.30
2022-07-31T14:24:38.649Z,2.60
2022-07-31T14:27:05.431Z,2.60
2022-07-31T14:29:32.270Z,3.70
2022-07-31T14:32:03.257Z,2.95
2022-07-31T14:34:31.070Z,5.40
2022-07-31T14:37:02.712Z,3.17
2022-07-31T14:39:29.704Z,2.60
2022-07-31T14:44:43.197Z,2.60
2022-07-31T14:50:06.691Z,2.70
2022-07-31T14:55:24.007Z,2.40
2022-07-31T14:57:51.061Z,2.60
2022-07-31T15:03:04.929Z,2.60
2022-07-31T15:06:39.650Z,3.10
2022-07-31T15:07:48.615Z,0
2022-07-31T15:08:18.539Z,3.47
2022-07-31T15:10:45.295Z,2.80
2022-07-31T15:16:00.367Z,2.80
2022-07-31T15:21:14.638Z,2.70
2022-07-31T15:23:41.422Z,2.70
2022-07-31T15:26:08.283Z,4.80
2022-07-31T15:28:35.069Z,3.22
2022-07-31T15:31:02.272Z,2.78
2022-07-31T15:31:13.986Z,0
2022-07-31T15:33:29.049Z,2.80
2022-07-31T15:35:55.855Z,2.78
2022-07-31T15:38:22.658Z,2.50
2022-07-31T15:40:49.475Z,2.60
2022-07-31T15:43:17.370Z,2.55
2022-07-31T15:45:44.311Z,2.70
2022-07-31T15:48:11.374Z,2.60
2022-07-31T15:50:38.466Z,2.35
2022-07-31T15:53:05.261Z,2.60
2022-07-31T15:58:18.770Z,2.67
2022-07-31T16:00:45.762Z,2.70
2022-07-31T16:03:17.875Z,2.67
2022-07-31T16:05:41.310Z,0
2022-07-31T16:08:35.557Z,4.22
2022-07-31T16:10:19.896Z,0
2022-07-31T16:11:02.839Z,3.15
2022-07-31T16:16:16.374Z,2.92
2022-07-31T16:21:29.899Z,2.90
2022-07-31T16:23:56.705Z,2.50
2022-07-31T16:26:23.496Z,2.40
2022-07-31T16:28:53.983Z,3.10
2022-07-31T16:30:05.079Z,0
2022-07-31T16:31:30.278Z,5.57
2022-07-31T16:33:57.599Z,3.90
2022-07-31T16:39:20.502Z,2.90
2022-07-31T16:41:54.543Z,2.70
2022-07-31T16:44:22.069Z,2.65
2022-07-31T16:46:54.156Z,3.10
2022-07-31T16:49:35.587Z,2.78
2022-07-31T16:52:05.091Z,2.72
2022-07-31T16:54:31.919Z,2.90
2022-07-31T16:56:58.693Z,3.07
2022-07-31T16:59:25.472Z,2.58
2022-07-31T17:01:59.143Z,3.17
2022-07-31T17:04:27.942Z,2.80
2022-07-31T17:06:55.039Z,2.75
2022-07-31T17:09:21.937Z,3.00
2022-07-31T17:11:56.399Z,3.00
2022-07-31T17:14:25.449Z,2.80
2022-07-31T17:16:53.812Z,3.10
2022-07-31T17:17:53.887Z,0
2022-07-31T17:19:42.860Z,3.45
2022-07-31T17:22:11.405Z,3.60
2022-07-31T17:23:51.693Z,0
2022-07-31T17:24:39.004Z,3.80
2022-07-31T17:29:53.721Z,4.00
2022-07-31T17:35:08.580Z,5.30
2022-07-31T17:37:40.388Z,8.35
2022-07-31T17:40:27.066Z,5.22
2022-07-31T17:45:59.693Z,4.88
2022-07-31T17:46:50.637Z,0
2022-07-31T17:48:28.601Z,5.53
2022-07-31T17:50:55.425Z,5.40
2022-07-31T17:56:12.812Z,8.15
2022-07-31T18:01:28.975Z,4.90
2022-07-31T18:03:56.220Z,5.80
2022-07-31T18:06:23.349Z,5.57
2022-07-31T18:08:50.183Z,4.80
2022-07-31T18:10:55.365Z,0
2022-07-31T18:11:17.649Z,5.15
2022-07-31T18:13:48.691Z,4.95
2022-07-31T18:19:05.750Z,5.20
2022-07-31T18:22:52.320Z,0
2022-07-31T18:24:20.343Z,5.50
2022-07-31T18:26:47.476Z,5.60
2022-07-31T18:32:00.970Z,6.35
2022-07-31T18:34:27.750Z,6.40
2022-07-31T18:36:55.177Z,6.30
2022-07-31T18:39:22.785Z,7.20
2022-07-31T18:41:49.546Z,6.90
2022-07-31T18:47:03.578Z,11.90
2022-07-31T18:50:58.605Z,19.63
2022-07-31T18:55:04.144Z,7.07
2022-07-31T19:00:17.868Z,6.95
2022-07-31T19:02:44.649Z,6.90
2022-07-31T19:05:13.699Z,6.50
2022-07-31T19:07:49.057Z,6.50
2022-07-31T19:10:29.470Z,7.30
2022-07-31T19:12:58.549Z,6.80
2022-07-31T19:15:25.341Z,6.80
2022-07-31T19:17:52.108Z,7.30
2022-07-31T19:20:46.503Z,7.50
2022-07-31T19:21:44.378Z,0
2022-07-31T19:23:12.587Z,7.50
2022-07-31T19:26:02.962Z,7.30
2022-07-31T19:28:20.328Z,0
2022-07-31T19:31:14.072Z,8.07
2022-07-31T19:36:27.950Z,9.35
2022-07-31T19:38:54.792Z,12.95
2022-07-31T19:41:21.636Z,35.47
2022-07-31T19:43:49.446Z,12.88
2022-07-31T19:46:16.630Z,8.90
2022-07-31T19:51:31.695Z,8.60
2022-07-31T19:53:59.050Z,7.40
2022-07-31T19:56:25.839Z,8.07
2022-07-31T19:58:52.655Z,8.48
2022-07-31T20:01:19.879Z,8.30
2022-07-31T20:03:46.882Z,8.30
2022-07-31T20:06:13.669Z,8.60
2022-07-31T20:08:41.266Z,10.68
2022-07-31T20:11:08.141Z,19.52
2022-07-31T20:13:36.122Z,10.25
2022-07-31T20:16:03.073Z,8.65
2022-07-31T20:18:30.095Z,9.20
2022-07-31T20:21:00.698Z,7.88
2022-07-31T20:23:27.681Z,8.00
2022-07-31T20:23:49.958Z,0
2022-07-31T20:28:41.732Z,8.57
2022-07-31T20:31:15.058Z,8.95
2022-07-31T20:33:57.892Z,9.50
2022-07-31T20:36:26.078Z,8.95
2022-07-31T20:38:53.098Z,9.80
2022-07-31T20:41:19.946Z,8.60
2022-07-31T20:43:46.829Z,8.88
2022-07-31T20:46:13.634Z,8.30
2022-07-31T20:48:44.017Z,9.73
2022-07-31T20:51:11.598Z,8.70
2022-07-31T20:53:38.511Z,8.45
2022-07-31T20:58:52.308Z,8.80
2022-07-31T21:01:22.939Z,8.80
2022-07-31T21:03:50.177Z,8.70
2022-07-31T21:06:17.083Z,10.30
2022-07-31T21:11:31.665Z,9.00
2022-07-31T21:14:00.416Z,9.60
2022-07-31T21:16:27.256Z,8.95
2022-07-31T21:18:54.037Z,9.00
2022-07-31T21:24:08.665Z,14.52
2022-07-31T21:29:23.793Z,9.70
2022-07-31T21:31:50.900Z,10.30
2022-07-31T21:34:19.330Z,10.68
2022-07-31T21:36:47.897Z,10.00
2022-07-31T21:39:18.752Z,9.30
2022-07-31T21:41:46.298Z,10.90
2022-07-31T21:44:13.589Z,10.20
2022-07-31T21:46:46.059Z,10.43
2022-07-31T21:49:19.231Z,10.23
2022-07-31T21:51:46.503Z,10.45
2022-07-31T21:54:13.242Z,10.10
2022-07-31T21:56:40.058Z,11.07
2022-07-31T22:01:58.031Z,10.70
2022-07-31T22:04:34.399Z,9.57
2022-07-31T22:07:01.503Z,10.20
2022-07-31T22:09:28.291Z,9.40
2022-07-31T22:12:01.476Z,10.13
2022-07-31T22:12:04.399Z,0
2022-07-31T22:14:28.648Z,9.52
2022-07-31T22:16:55.423Z,9.70
2022-07-31T22:19:22.418Z,10.80
2022-07-31T22:21:49.482Z,10.90
2022-07-31T22:24:16.388Z,9.90
2022-07-31T22:26:43.258Z,9.43
2022-07-31T22:29:10.062Z,9.13
2022-07-31T22:31:49.905Z,11.02
2022-07-31T22:34:37.932Z,10.07
2022-07-31T22:37:05.951Z,10.15
2022-07-31T22:42:20.210Z,10.80
2022-07-31T22:44:24.506Z,0
2022-07-31T22:44:47.327Z,10.90
2022-07-31T22:47:16.145Z,10.10
2022-07-31T22:52:34.645Z,9.75
2022-07-31T22:57:51.111Z,10.90
2022-07-31T23:03:04.942Z,11.50
2022-07-31T23:08:18.471Z,11.50
2022-07-31T23:13:31.955Z,10.50
2022-07-31T23:15:59.585Z,11.73
2022-07-31T23:18:26.632Z,11.23
2022-07-31T23:20:53.427Z,11.48
2022-07-31T23:26:06.944Z,11.20
2022-07-31T23:28:34.055Z,11.70
2022-07-31T23:31:00.872Z,10.70
2022-07-31T23:33:27.601Z,12.88
2022-07-31T23:35:54.364Z,14.60
2022-07-31T23:38:21.146Z,12.75
2022-07-31T23:40:48.103Z,11.50
2022-07-31T23:43:18.193Z,11.20
2022-07-31T23:45:47.626Z,11.73
2022-07-31T23:48:15.223Z,10.53
2022-07-31T23:50:42.771Z,11.30
2022-07-31T23:55:56.419Z,11.10
2022-07-31T23:58:23.239Z,10.70
